Anchor, Mississippi
Current Conditions -  °F | °C
As of 8:15 AM on Wednesday 26 Nov 2014 (Local Time) from KSTF Reporting Station
NA  
Wind Chill: 32°   Ceiling: NA
Heat Index: 32°   Visibility: NA
Dew Point: 32°   Wind: 0mph
Humidity: 100%   Direction: NA
Pressure: 30.2"   Gusts: NA
Location:  33.7962°N, 89.0553°W
Report Text: KSTF 261415Z AUTO 00000KT 00/00 A3020 RMK AO2 PWINO
Loading
Personal Weather Stations






























Interactive Weather Map New forecast layout! Learn more

10-Day Weather Forecast

Advertisements
Track Severe Weather on mobile